Time;durP1;ratioP1;P1;durP2;ratioP2;P2;SDS_P1;SDS_P2;PMS_P1;PMS_P2;Temp;Humidity;BMP_temperature;BMP_pressure;BME280_temperature;BME280_humidity;BME280_pressure;Samples;Min_cycle;Max_cycle;Signal;HPM_P1;HPM_P2
2021/12/05 00:20:21;;;;;;;21.05;8.95;;;3.40;99.90;;;;;;4882790;29;20060;-66
2021/12/05 00:22:47;;;;;;;15.85;9.55;;;3.40;99.90;;;;;;4883199;29;20067;-66
2021/12/05 00:25:23;;;;;;;16.65;9.07;;;3.40;99.90;;;;;;4898797;29;20044;-67
2021/12/05 00:28:03;;;;;;;16.33;9.18;;;3.40;99.90;;;;;;4883749;29;20388;-65
2021/12/05 00:44:06;;;;;;;13.82;8.27;;;3.50;99.90;;;;;;4882903;29;20049;-65
2021/12/05 00:55:02;;;;;;;15.63;7.55;;;3.60;99.90;;;;;;4881905;29;20052;-65
2021/12/05 01:00:27;;;;;;;14.18;7.57;;;3.60;99.90;;;;;;4882969;29;20087;-66
2021/12/05 01:16:10;;;;;;;12.38;7.15;;;3.60;99.90;;;;;;4882488;29;20162;-66
2021/12/05 01:18:37;;;;;;;12.75;5.95;;;3.60;99.90;;;;;;4881710;29;20061;-65
2021/12/05 01:21:10;;;;;;;13.55;6.53;;;3.50;99.90;;;;;;4882203;29;20056;-66
2021/12/05 01:26:18;;;;;;;14.90;6.45;;;3.50;99.90;;;;;;4882255;29;20052;-66
2021/12/05 01:29:01;;;;;;;13.02;6.15;;;3.50;99.90;;;;;;4882910;29;20397;-67
2021/12/05 01:36:31;;;;;;;12.00;6.60;;;3.50;99.90;;;;;;4880785;29;20048;-65
2021/12/05 01:39:22;;;;;;;17.25;6.95;;;3.60;99.90;;;;;;4882516;29;20397;-66
2021/12/05 01:47:31;;;;;;;11.52;6.45;;;3.60;99.90;;;;;;4897557;29;20071;-66
2021/12/05 01:52:51;;;;;;;16.08;6.78;;;3.70;99.90;;;;;;4881550;29;20056;-65
2021/12/05 01:58:04;;;;;;;13.70;6.68;;;3.70;99.90;;;;;;4881617;29;20143;-65
2021/12/05 02:07:52;;;;;;;19.63;7.25;;;3.80;99.90;;;;;;4896581;29;20056;-66
2021/12/05 02:41:51;;;;;;;22.27;12.18;;;3.90;99.90;;;;;;4893842;29;20505;-66
2021/12/05 02:44:23;;;;;;;22.40;10.98;;;3.90;99.90;;;;;;4881146;29;20056;-65
2021/12/05 02:47:01;;;;;;;;;;;3.90;99.90;;;;;;4880791;29;20060;-67
2021/12/05 02:49:29;;;;;;;24.73;12.60;;;3.90;99.90;;;;;;4880585;29;19991;-66
2021/12/05 02:51:59;;;;;;;21.08;11.55;;;3.90;99.90;;;;;;4880861;29;20052;-67
2021/12/05 02:54:31;;;;;;;27.65;14.20;;;3.90;99.90;;;;;;4880777;29;20074;-66
2021/12/05 02:56:57;;;;;;;27.40;12.98;;;3.90;99.90;;;;;;4881528;29;20052;-65
2021/12/05 02:59:50;;;;;;;23.23;13.13;;;4.00;99.90;;;;;;4896966;29;20071;-67
2021/12/05 03:02:16;;;;;;;25.67;12.57;;;4.00;99.90;;;;;;4879461;29;20049;-66
2021/12/05 03:04:46;;;;;;;23.85;13.13;;;4.00;99.90;;;;;;4897404;29;20071;-66
2021/12/05 03:07:14;;;;;;;19.10;12.75;;;4.00;99.90;;;;;;4880818;29;20060;-66
2021/12/05 03:09:41;;;;;;;23.45;13.15;;;4.00;99.90;;;;;;4880611;29;20168;-67
2021/12/05 03:12:14;;;;;;;26.17;12.55;;;3.90;99.90;;;;;;4881166;29;20517;-67
2021/12/05 03:14:40;;;;;;;26.38;12.23;;;3.90;99.90;;;;;;4865228;29;20049;-67
2021/12/05 03:17:06;;;;;;;23.95;13.18;;;3.90;99.90;;;;;;4880067;29;20466;-65
2021/12/05 03:19:31;;;;;;;24.00;13.57;;;3.90;99.90;;;;;;4881250;29;20105;-67
2021/12/05 03:21:57;;;;;;;19.88;12.25;;;3.90;99.90;;;;;;4881623;29;20085;-65
2021/12/05 03:24:24;;;;;;;25.30;12.50;;;3.90;99.90;;;;;;4874827;29;20412;-68
2021/12/05 03:26:52;;;;;;;25.67;13.23;;;3.90;99.90;;;;;;4884293;29;20067;-66
2021/12/05 03:29:19;;;;;;;25.58;12.70;;;3.80;99.90;;;;;;4884607;29;20056;-66
2021/12/05 03:31:46;;;;;;;21.00;11.93;;;3.90;99.90;;;;;;4884162;29;20061;-66
2021/12/05 03:34:15;;;;;;;24.95;12.43;;;3.80;99.90;;;;;;4884813;29;20048;-66
2021/12/05 03:36:44;;;;;;;29.73;12.52;;;3.90;99.90;;;;;;4883797;29;20060;-66
2021/12/05 03:39:10;;;;;;;23.05;11.85;;;3.90;99.90;;;;;;4884240;29;20048;-67
2021/12/05 03:41:37;;;;;;;22.27;10.98;;;3.90;99.90;;;;;;4884215;29;20085;-68
2021/12/05 03:44:05;;;;;;;21.00;11.45;;;3.80;99.90;;;;;;4884693;29;20462;-66
2021/12/05 03:46:31;;;;;;;22.05;11.20;;;3.80;99.90;;;;;;4883992;29;20061;-67
2021/12/05 03:49:02;;;;;;;20.58;11.23;;;3.80;99.90;;;;;;4883992;29;20159;-67
2021/12/05 03:51:31;;;;;;;21.02;10.77;;;3.80;99.90;;;;;;4883151;29;20184;-65
2021/12/05 03:53:57;;;;;;;21.48;10.57;;;3.80;99.90;;;;;;4864616;29;20109;-67
2021/12/05 03:56:23;;;;;;;23.45;10.88;;;3.80;99.90;;;;;;4877609;29;20060;-66
2021/12/05 03:58:51;;;;;;;20.85;10.65;;;3.80;99.90;;;;;;4900868;29;20067;-67
2021/12/05 04:01:18;;;;;;;15.32;9.93;;;3.80;99.90;;;;;;4883136;29;20065;-67
2021/12/05 04:03:46;;;;;;;15.93;9.18;;;3.80;99.90;;;;;;4883684;29;20057;-67
2021/12/05 04:06:14;;;;;;;21.27;10.35;;;3.80;99.90;;;;;;4883332;29;20516;-65
2021/12/05 04:08:40;;;;;;;23.38;10.15;;;3.80;99.90;;;;;;4883671;29;20052;-67
2021/12/05 04:11:15;;;;;;;23.23;10.75;;;3.80;99.90;;;;;;4899003;29;20055;-67
2021/12/05 04:13:42;;;;;;;18.58;10.38;;;3.80;99.90;;;;;;4883528;29;20131;-66
2021/12/05 04:16:08;;;;;;;20.08;10.15;;;3.80;99.90;;;;;;4883012;29;20489;-67
2021/12/05 04:18:34;;;;;;;20.73;10.15;;;3.80;99.90;;;;;;4883570;29;20135;-65
2021/12/05 04:21:00;;;;;;;16.85;9.38;;;3.70;99.90;;;;;;4883262;29;20060;-67
2021/12/05 04:23:27;;;;;;;15.25;8.98;;;3.70;99.90;;;;;;4899472;29;20078;-65
2021/12/05 04:25:53;;;;;;;17.25;9.23;;;3.70;99.90;;;;;;4898850;29;20088;-66
2021/12/05 04:28:21;;;;;;;14.90;8.85;;;3.70;99.90;;;;;;4883283;29;20053;-66
2021/12/05 04:30:47;;;;;;;20.77;9.50;;;3.70;99.90;;;;;;4882118;29;20095;-67
2021/12/05 04:33:12;;;;;;;19.80;8.90;;;3.60;99.90;;;;;;4883267;29;20118;-66
2021/12/05 04:35:38;;;;;;;15.07;8.60;;;3.70;99.90;;;;;;4898248;29;20468;-66
2021/12/05 04:38:05;;;;;;;19.65;9.60;;;3.60;99.90;;;;;;4898652;29;20059;-65
2021/12/05 04:40:33;;;;;;;17.45;8.88;;;3.60;99.90;;;;;;4899149;29;20125;-66
2021/12/05 04:42:59;;;;;;;18.00;8.32;;;3.60;99.90;;;;;;4898625;29;20143;-67
2021/12/05 04:45:28;;;;;;;16.75;7.88;;;3.60;99.90;;;;;;4898982;29;20127;-67
2021/12/05 04:47:55;;;;;;;18.52;8.02;;;3.50;99.90;;;;;;4882951;29;20152;-66
2021/12/05 04:50:20;;;;;;;19.02;9.00;;;3.50;99.90;;;;;;4882781;29;20052;-66
2021/12/05 04:52:47;;;;;;;11.52;7.50;;;3.50;99.90;;;;;;4897950;29;20125;-66
2021/12/05 04:55:13;;;;;;;18.77;8.13;;;3.50;99.90;;;;;;4879867;29;20056;-66
2021/12/05 04:57:40;;;;;;;22.95;8.45;;;3.40;99.90;;;;;;4872708;29;20100;-66
2021/12/05 05:00:13;;;;;;;16.08;7.53;;;3.40;99.90;;;;;;4882765;29;20068;-66
2021/12/05 05:02:39;;;;;;;22.02;7.57;;;3.40;99.90;;;;;;4882037;29;20053;-66
2021/12/05 05:05:06;;;;;;;15.80;7.80;;;3.30;99.90;;;;;;4881859;29;20061;-67
2021/12/05 05:07:32;;;;;;;16.98;7.78;;;3.30;99.90;;;;;;4882745;29;20053;-65
2021/12/05 05:10:13;;;;;;;17.58;8.07;;;3.20;99.90;;;;;;4897812;29;20049;-67
2021/12/05 05:12:39;;;;;;;15.27;7.05;;;3.20;99.90;;;;;;4899399;29;20527;-66
2021/12/05 05:15:07;;;;;;;12.70;6.63;;;3.20;99.90;;;;;;4897797;29;20130;-65
2021/12/05 05:17:34;;;;;;;17.85;7.30;;;3.20;99.90;;;;;;4865285;29;20164;-67
2021/12/05 05:20:05;;;;;;;21.70;6.78;;;3.10;99.90;;;;;;4881494;29;20089;-66
2021/12/05 05:22:47;;;;;;;14.25;7.55;;;3.10;99.90;;;;;;4882775;29;20049;-66
2021/12/05 05:26:20;;;;;;;14.20;6.80;;;3.10;99.90;;;;;;4866589;29;20100;-65
2021/12/05 05:49:18;;;;;;;15.68;6.78;;;2.80;99.90;;;;;;4881242;29;20084;-66
2021/12/05 05:51:44;;;;;;;16.75;7.22;;;2.80;99.90;;;;;;4905471;29;20048;-67
2021/12/05 05:54:10;;;;;;;17.65;6.57;;;2.80;99.90;;;;;;4881237;29;20059;-65
2021/12/05 05:56:37;;;;;;;15.05;6.88;;;2.90;99.90;;;;;;4885123;29;20477;-67
2021/12/05 05:59:26;;;;;;;15.07;6.60;;;2.80;99.90;;;;;;4880817;29;20052;-67
2021/12/05 06:04:19;;;;;;;14.88;7.03;;;2.70;99.90;;;;;;4881299;29;20052;-67
2021/12/05 06:06:45;;;;;;;11.63;6.40;;;2.70;99.90;;;;;;4898382;29;20378;-65
2021/12/05 06:09:11;;;;;;;20.98;7.03;;;2.70;99.90;;;;;;4896958;29;20832;-66
2021/12/05 06:11:37;;;;;;;16.20;7.10;;;3.40;99.90;;;;;;4881093;29;20155;-67
2021/12/05 06:14:04;;;;;;;16.23;7.20;;;2.70;99.90;;;;;;4881404;29;20063;-67
2021/12/05 06:16:30;;;;;;;18.75;6.70;;;2.70;99.90;;;;;;4881597;29;20534;-66
2021/12/05 06:18:56;;;;;;;17.58;6.85;;;2.70;99.90;;;;;;4881012;29;20108;-67
2021/12/05 06:21:22;;;;;;;20.25;6.68;;;2.70;99.90;;;;;;4880273;29;20056;-66
2021/12/05 06:23:49;;;;;;;20.13;7.50;;;2.70;99.90;;;;;;4896979;29;20044;-65
2021/12/05 06:26:21;;;;;;;21.48;6.85;;;2.70;99.90;;;;;;4897651;29;20068;-66
2021/12/05 06:28:57;;;;;;;16.70;7.72;;;2.70;99.90;;;;;;4880838;29;20414;-67
2021/12/05 06:37:11;;;;;;;18.42;7.20;;;2.90;99.90;;;;;;4861943;29;20384;-66
2021/12/05 06:42:45;;;;;;;21.60;7.88;;;2.90;99.90;;;;;;4898209;29;20071;-68
2021/12/05 06:47:54;;;;;;;17.58;7.20;;;2.90;99.90;;;;;;4881557;29;20421;-68
2021/12/05 06:50:20;;;;;;;21.17;7.85;;;2.90;99.90;;;;;;4879316;29;20057;-66
2021/12/05 06:52:46;;;;;;;18.98;8.20;;;3.00;99.90;;;;;;4895238;29;20060;-66
2021/12/05 06:55:13;;;;;;;18.60;7.95;;;3.00;99.90;;;;;;4880230;29;20139;-66
2021/12/05 06:57:39;;;;;;;18.90;7.65;;;3.00;99.90;;;;;;4880492;29;20060;-65
2021/12/05 07:00:14;;;;;;;17.77;7.95;;;3.00;99.90;;;;;;4879213;29;20071;-67
2021/12/05 07:02:39;;;;;;;21.40;8.95;;;3.10;99.90;;;;;;4881284;29;20060;-65
2021/12/05 07:07:49;;;;;;;17.50;8.80;;;3.10;99.90;;;;;;4880856;29;20057;-66
2021/12/05 07:10:17;;;;;;;20.65;8.20;;;3.20;99.90;;;;;;4895569;29;20052;-66
2021/12/05 07:13:20;;;;;;;21.70;8.77;;;3.20;99.90;;;;;;4895796;29;20087;-65
2021/12/05 07:21:17;;;;;;;26.45;9.68;;;3.20;99.90;;;;;;4896072;29;20075;-67
2021/12/05 07:23:49;;;;;;;18.33;8.98;;;3.30;99.90;;;;;;4896738;29;20390;-65
2021/12/05 07:42:35;;;;;;;18.67;9.35;;;3.40;99.90;;;;;;4880663;29;20057;-66
2021/12/05 07:45:04;;;;;;;18.95;9.07;;;3.40;99.90;;;;;;4897875;29;20072;-65
2021/12/05 07:47:32;;;;;;;19.17;8.98;;;3.40;99.90;;;;;;4897238;29;20052;-66
2021/12/05 07:50:04;;;;;;;15.98;8.35;;;3.40;99.90;;;;;;4879856;29;20402;-67
2021/12/05 07:52:31;;;;;;;16.17;7.65;;;3.50;99.90;;;;;;4880261;29;20462;-66
2021/12/05 07:55:06;;;;;;;19.25;9.77;;;3.50;99.90;;;;;;4877383;29;20511;-67
2021/12/05 07:57:45;;;;;;;21.73;8.38;;;3.50;99.90;;;;;;4880057;29;20045;-65
2021/12/05 08:00:21;;;;;;;14.35;8.57;;;3.60;99.90;;;;;;4880470;29;20053;-66
2021/12/05 08:16:30;;;;;;;22.52;9.18;;;3.60;99.90;;;;;;4900225;29;20053;-66
2021/12/05 08:18:56;;;;;;;20.77;8.18;;;3.60;99.90;;;;;;4900239;29;20063;-67
2021/12/05 08:21:21;;;;;;;20.45;9.00;;;3.60;99.90;;;;;;4882927;29;20053;-65
2021/12/05 08:23:49;;;;;;;19.73;8.80;;;3.70;99.90;;;;;;4899261;29;20059;-66
2021/12/05 08:26:20;;;;;;;18.58;8.93;;;3.70;99.90;;;;;;4883355;29;20059;-67
2021/12/05 08:31:54;;;;;;;22.42;9.02;;;3.70;99.90;;;;;;4882998;29;20064;-68
2021/12/05 08:34:39;;;;;;;15.10;8.38;;;3.70;99.90;;;;;;4883228;29;20052;-67
2021/12/05 09:21:06;;;;;;;16.48;8.35;;;4.10;99.90;;;;;;4897333;29;20119;-67
2021/12/05 09:26:11;;;;;;;12.98;7.55;;;4.10;99.90;;;;;;4897674;29;20462;-66
2021/12/05 09:53:32;;;;;;;13.68;6.63;;;4.30;99.90;;;;;;4882246;29;20382;-67
2021/12/05 10:01:54;;;;;;;16.40;8.98;;;4.40;99.90;;;;;;4882299;29;20108;-68
2021/12/05 10:06:55;;;;;;;16.23;7.28;;;4.40;99.90;;;;;;4898566;29;20044;-63
2021/12/05 10:15:11;;;;;;;10.27;6.00;;;4.50;99.90;;;;;;4898784;29;20393;-66
2021/12/05 10:18:47;;;;;;;15.13;7.22;;;4.50;99.90;;;;;;4900296;29;20131;-67
2021/12/05 10:35:50;;;;;;;10.82;7.03;;;4.90;99.90;;;;;;4897494;29;20053;-67
2021/12/05 10:38:24;;;;;;;10.30;6.50;;;4.90;99.90;;;;;;4863178;29;20117;-66
2021/12/05 10:43:42;;;;;;;11.55;6.45;;;5.00;99.90;;;;;;4882459;29;20387;-67
2021/12/05 10:46:12;;;;;;;11.38;6.30;;;5.10;99.90;;;;;;4881005;29;20059;-66
2021/12/05 10:48:47;;;;;;;11.00;6.45;;;5.10;99.90;;;;;;4897940;29;20401;-68
2021/12/05 10:51:14;;;;;;;10.07;6.40;;;5.20;99.90;;;;;;4879789;29;20199;-66
2021/12/05 10:53:45;;;;;;;9.63;6.78;;;5.20;99.90;;;;;;4862586;29;20072;-68
2021/12/05 10:56:27;;;;;;;12.07;5.80;;;5.20;99.90;;;;;;4884000;29;20048;-67
2021/12/05 10:58:53;;;;;;;12.27;5.97;;;5.20;99.90;;;;;;4890774;29;20056;-67
2021/12/05 11:01:27;;;;;;;11.18;6.20;;;5.30;99.90;;;;;;4916883;29;20489;-66
2021/12/05 11:04:03;;;;;;;10.63;6.00;;;5.30;99.90;;;;;;4915257;29;20139;-66
2021/12/05 11:06:37;;;;;;;7.88;5.20;;;5.30;99.90;;;;;;4897144;29;20132;-66
2021/12/05 11:09:12;;;;;;;10.52;6.22;;;5.40;99.90;;;;;;4881474;29;20386;-66
2021/12/05 11:11:40;;;;;;;9.80;5.93;;;5.40;99.90;;;;;;4880913;29;20123;-65
2021/12/05 11:14:12;;;;;;;9.10;5.18;;;5.40;99.90;;;;;;4896375;29;20430;-66
2021/12/05 11:16:45;;;;;;;12.18;5.32;;;5.50;99.90;;;;;;4880943;29;20064;-66
2021/12/05 11:19:23;;;;;;;12.70;5.55;;;5.40;99.90;;;;;;4904843;29;20063;-66
2021/12/05 11:21:56;;;;;;;11.45;5.45;;;5.40;99.90;;;;;;4891806;29;20067;-66
2021/12/05 11:24:32;;;;;;;9.27;5.38;;;5.40;99.90;;;;;;4894690;29;20076;-66
2021/12/05 11:27:09;;;;;;;8.98;5.95;;;5.40;99.90;;;;;;4898251;29;20095;-66
2021/12/05 11:29:51;;;;;;;10.15;5.97;;;5.40;99.90;;;;;;4893742;29;20064;-67
2021/12/05 11:32:30;;;;;;;11.57;6.63;;;5.40;99.90;;;;;;4870723;29;20056;-66
2021/12/05 11:34:56;;;;;;;12.20;6.65;;;5.40;99.90;;;;;;4896766;29;20052;-65
2021/12/05 11:37:21;;;;;;;24.02;12.45;;;5.40;99.90;;;;;;4905993;29;20552;-67
2021/12/05 11:39:48;;;;;;;15.63;10.93;;;5.40;99.90;;;;;;4895923;29;20084;-66
2021/12/05 11:42:21;;;;;;;13.55;7.00;;;5.40;99.90;;;;;;4900217;29;20063;-66
2021/12/05 11:44:52;;;;;;;10.75;7.60;;;5.40;99.90;;;;;;4917651;29;20084;-65
2021/12/05 11:47:20;;;;;;;11.10;6.22;;;5.50;99.90;;;;;;4888163;29;20508;-67
2021/12/05 11:49:46;;;;;;;9.85;5.93;;;5.40;99.90;;;;;;4899953;29;20107;-66
2021/12/05 11:52:13;;;;;;;8.98;6.10;;;5.40;99.90;;;;;;4899867;29;20457;-66
2021/12/05 11:54:42;;;;;;;9.88;7.07;;;5.40;99.90;;;;;;4884105;29;20080;-66
2021/12/05 11:57:15;;;;;;;12.50;8.10;;;5.40;99.90;;;;;;4884325;29;20052;-65
2021/12/05 12:00:10;;;;;;;10.20;7.93;;;5.40;99.90;;;;;;4883741;29;20064;-65
2021/12/05 12:02:40;;;;;;;10.13;5.78;;;5.50;99.90;;;;;;4868220;29;20180;-66
2021/12/05 12:05:27;;;;;;;7.57;5.18;;;5.50;99.90;;;;;;4883883;29;20115;-65
2021/12/05 12:08:05;;;;;;;10.25;6.38;;;5.50;99.90;;;;;;4900407;29;20580;-65
2021/12/05 12:10:50;;;;;;;9.20;6.50;;;5.50;99.90;;;;;;4900672;29;20056;-64
2021/12/05 12:13:23;;;;;;;8.68;5.80;;;5.60;99.90;;;;;;4900175;29;20060;-67
2021/12/05 12:15:59;;;;;;;12.40;7.28;;;5.60;99.90;;;;;;4900415;29;20104;-66
2021/12/05 12:18:32;;;;;;;10.73;5.22;;;5.70;99.90;;;;;;4882716;29;20048;-68
2021/12/05 12:21:05;;;;;;;13.48;6.50;;;5.70;99.90;;;;;;4899390;29;20493;-66
2021/12/05 12:23:31;;;;;;;11.88;6.22;;;5.70;99.90;;;;;;4899798;29;20099;-66
2021/12/05 12:26:00;;;;;;;6.38;4.90;;;5.70;99.90;;;;;;4898642;29;20059;-67
2021/12/05 12:28:26;;;;;;;8.98;6.40;;;5.60;99.90;;;;;;4884199;29;20060;-65
2021/12/05 12:30:59;;;;;;;17.90;7.68;;;5.70;99.90;;;;;;4867974;29;20052;-66
2021/12/05 12:33:30;;;;;;;;;;;5.60;99.90;;;;;;4883266;29;20060;-66
2021/12/05 12:35:56;;;;;;;10.82;6.40;;;5.60;99.90;;;;;;4882940;29;20391;-66
2021/12/05 12:38:23;;;;;;;7.22;4.78;;;5.60;99.90;;;;;;4900428;29;20052;-66
2021/12/05 12:40:58;;;;;;;7.43;4.60;;;5.70;99.90;;;;;;4899515;29;20056;-67
2021/12/05 12:43:39;;;;;;;7.88;4.40;;;5.60;99.90;;;;;;4883532;29;20048;-65
2021/12/05 12:46:28;;;;;;;7.57;4.97;;;5.50;99.90;;;;;;4900051;29;20145;-66
2021/12/05 12:49:14;;;;;;;10.98;5.95;;;5.50;99.90;;;;;;4899869;29;20139;-65
2021/12/05 12:52:00;;;;;;;8.75;6.03;;;5.50;99.90;;;;;;4897750;29;20091;-66
2021/12/05 12:54:48;;;;;;;6.28;4.22;;;5.50;99.90;;;;;;4899582;29;20119;-66
2021/12/05 12:57:20;;;;;;;11.35;4.90;;;5.50;99.90;;;;;;4899453;29;20117;-66
2021/12/05 12:59:46;;;;;;;;;;;5.50;99.90;;;;;;4877839;29;20565;-66
2021/12/05 13:02:31;;;;;;;6.25;4.43;;;5.50;99.90;;;;;;4882779;29;20022;-66
2021/12/05 13:05:20;;;;;;;9.95;5.32;;;5.40;99.90;;;;;;4882784;29;20144;-66
2021/12/05 13:10:44;;;;;;;6.70;4.90;;;5.50;99.90;;;;;;4882372;29;20482;-66
2021/12/05 13:13:28;;;;;;;8.40;4.53;;;5.50;99.90;;;;;;4882793;29;20469;-66
2021/12/05 13:15:59;;;;;;;5.88;4.90;;;5.50;99.90;;;;;;4899611;29;20112;-66
2021/12/05 13:18:46;;;;;;;7.40;5.00;;;5.40;99.90;;;;;;4882474;29;20052;-65
2021/12/05 13:21:36;;;;;;;6.65;5.55;;;5.40;99.90;;;;;;4898534;29;20099;-65
2021/12/05 13:24:20;;;;;;;7.80;5.00;;;5.50;99.90;;;;;;4883415;29;20056;-66
2021/12/05 13:26:46;;;;;;;6.68;4.82;;;5.40;99.90;;;;;;4882574;29;20151;-66
2021/12/05 13:29:20;;;;;;;8.23;4.78;;;5.40;99.90;;;;;;4899285;29;20135;-66
2021/12/05 13:32:04;;;;;;;5.68;4.88;;;5.40;99.90;;;;;;4882508;29;20481;-66
2021/12/05 13:34:41;;;;;;;5.88;4.90;;;5.40;99.90;;;;;;4898533;29;20428;-66
2021/12/05 13:37:08;;;;;;;6.10;5.18;;;5.40;99.90;;;;;;4882279;29;20056;-67
2021/12/05 13:39:54;;;;;;;6.70;4.50;;;5.40;99.90;;;;;;4882417;29;20099;-67
2021/12/05 13:42:25;;;;;;;6.07;4.88;;;5.40;99.90;;;;;;4899466;29;20056;-65
2021/12/05 13:45:00;;;;;;;9.73;4.80;;;5.40;99.90;;;;;;4898575;29;20434;-66
2021/12/05 13:47:31;;;;;;;7.03;4.55;;;5.50;99.90;;;;;;4882208;29;20056;-65
2021/12/05 13:50:18;;;;;;;7.78;5.43;;;5.40;99.90;;;;;;4880928;29;20139;-67
2021/12/05 13:52:52;;;;;;;7.93;5.78;;;5.40;99.90;;;;;;4881632;29;20056;-65
2021/12/05 13:55:36;;;;;;;7.30;6.13;;;5.40;99.90;;;;;;4898566;29;20051;-66
2021/12/05 13:58:14;;;;;;;6.40;5.68;;;5.40;99.90;;;;;;4882594;29;20055;-65
2021/12/05 14:00:51;;;;;;;11.25;8.25;;;5.40;99.90;;;;;;4897488;29;20155;-66
2021/12/05 14:03:53;;;;;;;7.28;6.57;;;5.40;99.90;;;;;;4897368;29;20068;-66
2021/12/05 14:06:38;;;;;;;6.85;6.07;;;5.40;99.90;;;;;;4881808;29;20514;-65
2021/12/05 14:09:12;;;;;;;7.70;5.65;;;5.40;99.90;;;;;;4897715;29;20413;-65
2021/12/05 14:11:44;;;;;;;6.47;5.50;;;5.50;99.90;;;;;;4896069;29;20064;-66
2021/12/05 14:14:10;;;;;;;6.95;5.88;;;5.50;99.90;;;;;;4881320;29;20112;-66
2021/12/05 14:16:42;;;;;;;6.72;5.25;;;5.50;99.90;;;;;;4897165;29;20067;-66
2021/12/05 14:19:17;;;;;;;9.00;4.88;;;5.50;99.90;;;;;;4898559;29;20536;-67
2021/12/05 14:21:49;;;;;;;6.47;4.43;;;5.50;99.90;;;;;;4898122;29;20064;-66
2021/12/05 14:24:17;;;;;;;8.85;4.55;;;5.50;99.90;;;;;;4898828;29;20060;-66
2021/12/05 14:26:43;;;;;;;6.65;4.80;;;5.40;99.90;;;;;;4907801;29;20519;-65
2021/12/05 14:29:16;;;;;;;5.30;4.80;;;5.40;99.90;;;;;;4879649;29;20052;-67
2021/12/05 14:31:49;;;;;;;7.18;5.00;;;5.40;99.90;;;;;;4896346;29;20052;-66
2021/12/05 14:34:15;;;;;;;7.72;5.70;;;5.40;99.90;;;;;;4880833;29;20519;-66
2021/12/05 14:37:06;;;;;;;8.15;6.35;;;5.40;99.90;;;;;;4895742;29;20080;-66
2021/12/05 14:39:40;;;;;;;8.80;6.28;;;5.40;99.90;;;;;;4897967;29;20105;-66
2021/12/05 14:42:10;;;;;;;13.43;9.23;;;5.40;99.90;;;;;;4896849;29;20056;-66
2021/12/05 14:44:38;;;;;;;7.32;6.32;;;5.40;99.90;;;;;;4879996;29;20088;-66
2021/12/05 14:47:10;;;;;;;10.63;6.40;;;5.30;99.90;;;;;;4880946;29;20092;-66
2021/12/05 14:49:43;;;;;;;8.23;6.18;;;5.30;99.90;;;;;;4880584;29;20060;-65
2021/12/05 14:52:13;;;;;;;;;;;5.40;99.90;;;;;;4897070;29;20454;-66
2021/12/05 14:54:40;;;;;;;9.10;6.50;;;5.30;99.90;;;;;;4897789;29;19934;-66
2021/12/05 14:57:10;;;;;;;8.27;6.13;;;5.20;99.90;;;;;;4881166;29;20061;-65
2021/12/05 14:59:36;;;;;;;9.20;7.43;;;5.20;99.90;;;;;;4880292;29;20135;-66
2021/12/05 15:02:04;;;;;;;10.77;7.40;;;5.20;99.90;;;;;;4897000;29;20052;-68
2021/12/05 15:04:51;;;;;;;12.77;7.07;;;5.20;99.90;;;;;;4880017;29;20505;-66
2021/12/05 15:07:19;;;;;;;10.27;7.40;;;5.20;99.90;;;;;;4898103;29;20095;-67
2021/12/05 15:09:47;;;;;;;8.23;7.15;;;5.10;99.90;;;;;;4880663;29;20422;-66
2021/12/05 15:12:18;;;;;;;8.68;6.63;;;5.10;99.90;;;;;;4896844;29;20056;-66
2021/12/05 15:14:47;;;;;;;9.55;6.35;;;5.10;99.90;;;;;;4899922;29;20394;-66
2021/12/05 15:17:15;;;;;;;7.15;5.90;;;5.10;99.90;;;;;;4901872;29;20497;-67
2021/12/05 15:19:43;;;;;;;7.63;6.10;;;5.00;99.90;;;;;;4899568;29;20496;-66
2021/12/05 15:22:12;;;;;;;7.70;5.68;;;5.10;99.90;;;;;;4885439;29;20064;-68
2021/12/05 15:24:39;;;;;;;9.85;5.93;;;5.00;99.90;;;;;;4884191;29;20052;-66
2021/12/05 15:27:13;;;;;;;8.95;5.97;;;5.00;99.90;;;;;;4900737;29;20112;-67
2021/12/05 15:29:49;;;;;;;10.27;5.82;;;5.00;99.90;;;;;;4900809;29;20048;-66
2021/12/05 15:32:17;;;;;;;7.68;5.45;;;5.10;99.90;;;;;;4900914;29;20074;-67
2021/12/05 15:34:43;;;;;;;6.90;5.30;;;5.10;99.90;;;;;;4883425;29;20063;-65
2021/12/05 15:37:12;;;;;;;11.18;5.60;;;5.10;99.90;;;;;;4899930;29;20052;-66
2021/12/05 15:39:42;;;;;;;6.18;5.30;;;5.10;99.90;;;;;;4901361;29;20056;-66
2021/12/05 15:42:25;;;;;;;8.70;5.90;;;5.10;99.90;;;;;;4901702;29;20150;-67
2021/12/05 15:44:53;;;;;;;7.40;5.95;;;5.10;99.90;;;;;;4899631;29;20067;-65
2021/12/05 15:47:22;;;;;;;7.57;5.40;;;5.10;99.90;;;;;;4884164;29;20088;-66
2021/12/05 15:50:02;;;;;;;7.95;5.65;;;5.10;99.90;;;;;;4883863;29;20049;-67
2021/12/05 15:52:46;;;;;;;6.20;5.18;;;5.10;99.90;;;;;;4883716;29;20362;-67
2021/12/05 15:55:20;;;;;;;8.85;5.63;;;5.00;99.90;;;;;;4899860;29;20140;-67
2021/12/05 15:57:55;;;;;;;6.25;5.65;;;5.10;99.90;;;;;;4899773;29;20053;-66
2021/12/05 16:00:29;;;;;;;7.30;5.15;;;5.10;99.90;;;;;;4880911;29;20410;-65
2021/12/05 16:02:57;;;;;;;7.28;5.07;;;5.00;99.90;;;;;;4895353;29;20057;-67
2021/12/05 16:05:23;;;;;;;6.18;5.28;;;5.00;99.90;;;;;;4895703;29;20077;-66
2021/12/05 16:07:50;;;;;;;9.13;5.82;;;5.00;99.90;;;;;;4897108;29;20059;-66
2021/12/05 16:10:23;;;;;;;7.82;6.10;;;5.00;99.90;;;;;;4888681;29;20104;-66
2021/12/05 16:12:52;;;;;;;6.63;5.82;;;5.00;99.90;;;;;;4880553;29;20080;-67
2021/12/05 16:15:20;;;;;;;8.07;5.75;;;5.00;99.90;;;;;;4880201;29;20119;-68
2021/12/05 16:17:58;;;;;;;6.55;5.32;;;5.00;99.90;;;;;;4897362;29;20087;-65
2021/12/05 16:20:33;;;;;;;6.78;5.28;;;5.00;99.90;;;;;;4897574;29;20052;-66
2021/12/05 16:23:02;;;;;;;6.80;5.28;;;5.10;99.90;;;;;;4883738;29;20127;-67
2021/12/05 16:25:29;;;;;;;9.65;5.63;;;5.10;99.90;;;;;;4892520;29;20394;-67
2021/12/05 16:28:01;;;;;;;6.00;5.13;;;5.00;99.90;;;;;;4900638;29;20044;-67
2021/12/05 16:30:31;;;;;;;9.50;5.60;;;5.00;99.90;;;;;;4895971;29;20047;-66
2021/12/05 16:32:59;;;;;;;8.18;5.57;;;5.10;99.90;;;;;;4898424;29;20053;-66
2021/12/05 16:35:37;;;;;;;8.10;5.57;;;5.00;99.90;;;;;;4893371;29;20413;-66
2021/12/05 16:38:31;;;;;;;9.73;6.43;;;5.00;99.90;;;;;;4900473;29;20056;-66
2021/12/05 16:41:00;;;;;;;9.70;6.53;;;5.00;99.90;;;;;;4891724;29;20056;-66
2021/12/05 16:43:28;;;;;;;9.25;6.60;;;5.10;99.90;;;;;;4899527;29;20115;-66
2021/12/05 16:45:56;;;;;;;8.05;6.30;;;5.10;99.90;;;;;;4897272;29;20060;-67
2021/12/05 16:48:22;;;;;;;11.75;7.32;;;5.10;99.90;;;;;;4897287;29;20056;-66
2021/12/05 16:50:47;;;;;;;10.05;7.18;;;5.10;99.90;;;;;;4895882;29;20056;-66
2021/12/05 16:53:14;;;;;;;10.52;6.82;;;5.20;99.90;;;;;;4897696;29;20362;-67
2021/12/05 16:55:45;;;;;;;10.45;7.32;;;5.20;99.90;;;;;;4898727;29;20053;-67
2021/12/05 16:58:20;;;;;;;12.45;7.55;;;5.20;99.90;;;;;;4907958;29;20083;-67
2021/12/05 17:00:51;;;;;;;10.27;7.13;;;5.20;99.90;;;;;;4901587;29;20127;-67
2021/12/05 17:03:26;;;;;;;10.88;7.03;;;5.20;99.90;;;;;;4899656;29;20059;-66
2021/12/05 17:05:55;;;;;;;11.73;7.63;;;5.10;99.90;;;;;;4913176;29;20629;-68
2021/12/05 17:08:24;;;;;;;13.93;8.18;;;5.10;99.90;;;;;;4893753;29;20049;-67
2021/12/05 17:11:03;;;;;;;12.23;7.57;;;5.10;99.90;;;;;;4881096;29;20071;-67
2021/12/05 17:13:41;;;;;;;12.23;9.10;;;5.10;99.90;;;;;;4864027;29;20155;-65
2021/12/05 17:16:09;;;;;;;14.02;8.60;;;5.10;99.90;;;;;;4900596;29;20048;-67
2021/12/05 17:18:42;;;;;;;13.90;9.15;;;5.00;99.90;;;;;;4913712;29;20052;-67
2021/12/05 17:21:11;;;;;;;;;;;5.00;99.90;;;;;;4911759;29;20055;-66
2021/12/05 17:24:16;;;;;;;12.32;8.30;;;5.00;99.90;;;;;;4892485;29;20431;-67
2021/12/05 17:26:44;;;;;;;14.35;8.93;;;5.00;99.90;;;;;;4889000;29;20483;-67
2021/12/05 17:29:31;;;;;;;15.43;9.18;;;5.10;99.90;;;;;;4888715;29;20064;-66
2021/12/05 17:32:14;;;;;;;15.15;9.07;;;5.10;99.90;;;;;;4871996;29;20444;-66
2021/12/05 17:34:49;;;;;;;14.60;9.93;;;5.00;99.90;;;;;;4875344;29;20374;-68
2021/12/05 17:37:24;;;;;;;13.43;9.18;;;5.00;99.90;;;;;;4898758;29;20497;-67
2021/12/05 17:39:51;;;;;;;17.00;10.15;;;5.00;99.90;;;;;;4890594;29;20063;-67
2021/12/05 17:42:24;;;;;;;15.77;10.02;;;5.00;99.90;;;;;;4890413;29;20053;-67
2021/12/05 17:44:52;;;;;;;17.88;10.07;;;5.00;99.90;;;;;;4880697;29;20096;-66
2021/12/05 17:47:19;;;;;;;16.08;10.95;;;5.00;99.90;;;;;;4903080;29;20052;-67
2021/12/05 17:49:49;;;;;;;16.05;10.82;;;4.90;99.90;;;;;;4893592;29;20071;-67
2021/12/05 17:52:17;;;;;;;16.73;10.85;;;4.90;99.90;;;;;;4917811;29;20070;-68
2021/12/05 17:55:03;;;;;;;18.92;11.70;;;4.90;99.90;;;;;;4899422;29;20048;-66
2021/12/05 17:57:37;;;;;;;19.23;11.10;;;4.90;99.90;;;;;;4917975;29;20087;-66
2021/12/05 18:03:12;;;;;;;19.75;13.63;;;4.90;99.90;;;;;;4872479;29;20342;-66
2021/12/05 18:05:43;;;;;;;21.60;13.27;;;4.80;99.90;;;;;;4892530;29;20052;-66
2021/12/05 18:08:15;;;;;;;20.48;13.57;;;4.90;99.90;;;;;;4887201;29;20056;-68
2021/12/05 18:10:54;;;;;;;25.23;13.57;;;4.80;99.90;;;;;;4891941;29;20052;-67
2021/12/05 18:13:23;;;;;;;24.55;14.05;;;4.80;99.90;;;;;;4888024;29;20135;-66
2021/12/05 18:15:57;;;;;;;23.38;14.35;;;4.80;99.90;;;;;;4890903;29;20080;-66